createdAt,value
2023-05-18T00:02:01.472Z,99943.64
2023-05-18T00:04:29.785Z,99943.39
2023-05-18T00:07:03.826Z,99947.36
2023-05-18T00:09:35.704Z,99949.39
2023-05-18T00:12:04.038Z,99948.00
2023-05-18T00:14:31.211Z,99951.42
2023-05-18T00:16:58.101Z,99954.31
2023-05-18T00:19:25.134Z,99953.58
2023-05-18T00:21:52.716Z,99959.53
2023-05-18T00:24:19.851Z,99958.00
2023-05-18T00:26:47.415Z,99958.45
2023-05-18T00:29:14.233Z,99954.11
2023-05-18T00:31:42.175Z,99952.09
2023-05-18T00:34:12.202Z,99950.08
2023-05-18T00:36:39.392Z,99951.55
2023-05-18T00:39:07.270Z,99951.89
2023-05-18T00:41:34.052Z,99953.34
2023-05-18T00:44:01.126Z,99954.45
2023-05-18T00:46:28.387Z,99958.41
2023-05-18T00:49:02.000Z,99956.63
2023-05-18T00:51:29.152Z,99959.36
2023-05-18T00:53:57.073Z,99956.31
2023-05-18T00:56:25.098Z,99955.52
2023-05-18T00:58:55.968Z,99957.03
2023-05-18T01:01:31.805Z,99957.02
2023-05-18T01:04:02.483Z,99957.65
2023-05-18T01:06:41.193Z,99956.21
2023-05-18T01:09:10.929Z,99955.00
2023-05-18T01:11:44.471Z,99958.13
2023-05-18T01:14:31.953Z,99956.55
2023-05-18T01:17:20.164Z,99956.38
2023-05-18T01:19:56.074Z,99960.20
2023-05-18T01:22:33.605Z,99959.23
2023-05-18T01:25:04.803Z,99959.89
2023-05-18T01:27:37.571Z,99960.86
2023-05-18T01:30:08.137Z,99962.93
2023-05-18T01:32:42.681Z,99965.00
2023-05-18T01:35:09.723Z,99965.92
2023-05-18T01:37:36.513Z,99966.02
2023-05-18T01:40:05.161Z,99967.76
2023-05-18T01:42:31.999Z,99976.09
2023-05-18T01:45:00.572Z,99975.15
2023-05-18T01:47:28.585Z,99971.83
2023-05-18T01:50:17.258Z,99976.55
2023-05-18T01:53:03.723Z,99977.56
2023-05-18T01:55:30.940Z,99982.55
2023-05-18T01:57:58.218Z,99982.05
2023-05-18T02:00:25.021Z,99986.98
2023-05-18T02:02:51.944Z,99985.91
2023-05-18T02:05:19.161Z,99986.64
2023-05-18T02:07:48.679Z,99985.69
2023-05-18T02:10:15.638Z,99993.45
2023-05-18T02:12:42.513Z,99992.66
2023-05-18T02:15:09.940Z,99994.91
2023-05-18T02:17:39.749Z,99996.93
2023-05-18T02:20:08.733Z,99998.11
2023-05-18T02:22:36.297Z,99997.76
2023-05-18T02:25:05.226Z,99999.61
2023-05-18T02:27:34.036Z,99999.84
2023-05-18T02:30:01.006Z,100000.41
2023-05-18T02:34:24.973Z,100002.87
2023-05-18T02:36:51.840Z,100003.45
2023-05-18T02:39:19.132Z,100005.09
2023-05-18T02:41:46.269Z,100003.13
2023-05-18T02:44:13.095Z,100002.65
2023-05-18T02:46:39.980Z,100006.74
2023-05-18T02:49:07.242Z,100008.26
2023-05-18T02:51:34.175Z,100008.06
2023-05-18T02:54:01.625Z,100003.42
2023-05-18T02:56:29.323Z,100008.35
2023-05-18T02:59:07.921Z,100005.48
2023-05-18T03:01:38.908Z,100008.83
2023-05-18T03:04:05.815Z,100007.98
2023-05-18T03:06:32.946Z,100006.75
2023-05-18T03:08:59.924Z,100012.58
2023-05-18T03:11:32.750Z,100010.56
2023-05-18T03:13:59.672Z,100014.53
2023-05-18T03:16:28.701Z,100017.21
2023-05-18T03:18:59.428Z,100014.64
2023-05-18T03:21:34.191Z,100023.59
2023-05-18T03:24:02.850Z,100025.91
2023-05-18T03:26:31.037Z,100027.23
2023-05-18T03:28:58.491Z,100023.38
2023-05-18T03:31:26.032Z,100025.53
2023-05-18T03:33:52.982Z,100024.85
2023-05-18T03:36:22.663Z,100025.98
2023-05-18T03:38:49.644Z,100026.70
2023-05-18T03:41:16.469Z,100023.40
2023-05-18T03:43:43.428Z,100029.45
2023-05-18T03:46:11.536Z,100031.45
2023-05-18T03:48:38.674Z,100033.14
2023-05-18T03:51:06.503Z,100031.44
2023-05-18T03:53:34.954Z,100033.41
2023-05-18T03:56:01.926Z,100037.78
2023-05-18T03:58:30.184Z,100034.70
2023-05-18T04:00:57.948Z,100037.70
2023-05-18T04:03:27.274Z,100036.42
2023-05-18T04:05:55.879Z,100035.57
2023-05-18T04:08:25.675Z,100038.14
2023-05-18T04:10:52.634Z,100037.63
2023-05-18T04:13:19.479Z,100039.43
2023-05-18T04:15:47.838Z,100044.48
2023-05-18T04:18:14.807Z,100046.37
2023-05-18T04:20:42.770Z,100048.59
2023-05-18T04:23:10.462Z,100053.62
2023-05-18T04:25:39.548Z,100057.23
2023-05-18T04:28:06.986Z,100057.30
2023-05-18T04:30:35.609Z,100057.59
2023-05-18T04:33:04.131Z,100056.09
2023-05-18T04:35:32.228Z,100053.83
2023-05-18T04:37:59.550Z,100061.88
2023-05-18T04:40:26.674Z,100062.29
2023-05-18T04:42:53.677Z,100065.64
2023-05-18T04:45:26.463Z,100065.20
2023-05-18T04:47:55.316Z,100070.42
2023-05-18T04:50:25.578Z,100067.23
2023-05-18T04:52:52.542Z,100065.30
2023-05-18T04:55:29.028Z,100065.89
2023-05-18T04:58:06.114Z,100071.63
2023-05-18T05:00:33.331Z,100074.85
2023-05-18T05:03:00.327Z,100073.85
2023-05-18T05:05:27.677Z,100076.84
2023-05-18T05:07:56.016Z,100078.96
2023-05-18T05:10:22.975Z,100081.95
2023-05-18T05:12:50.718Z,100080.33
2023-05-18T05:15:18.947Z,100081.77
2023-05-18T05:17:49.818Z,100085.63
2023-05-18T05:20:17.225Z,100082.90
2023-05-18T05:22:44.414Z,100085.31
2023-05-18T05:25:13.735Z,100083.63
2023-05-18T05:27:40.645Z,100084.57
2023-05-18T05:30:08.443Z,100085.73
2023-05-18T05:32:36.971Z,100087.59
2023-05-18T05:35:06.176Z,100088.33
2023-05-18T05:37:33.412Z,100089.41
2023-05-18T05:40:00.270Z,100083.61
2023-05-18T05:42:30.056Z,100085.23
2023-05-18T05:44:57.061Z,100083.80
2023-05-18T05:47:26.020Z,100088.27
2023-05-18T05:49:53.045Z,100090.45
2023-05-18T05:52:20.521Z,100094.48
2023-05-18T05:54:47.538Z,100094.02
2023-05-18T05:57:14.893Z,100099.59
2023-05-18T05:59:41.820Z,100100.48
2023-05-18T06:02:09.311Z,100101.82
2023-05-18T06:04:36.353Z,100097.49
2023-05-18T06:07:03.877Z,100094.84
2023-05-18T06:09:30.675Z,100095.95
2023-05-18T06:11:57.563Z,100096.41
2023-05-18T06:14:25.781Z,100100.33
2023-05-18T06:16:53.773Z,100099.93
2023-05-18T06:19:20.953Z,100103.86
2023-05-18T06:21:47.988Z,100103.20
2023-05-18T06:24:14.887Z,100109.34
2023-05-18T06:26:54.188Z,100108.16
2023-05-18T06:29:47.214Z,100111.68
2023-05-18T06:32:14.243Z,100114.42
2023-05-18T06:34:45.901Z,100112.45
2023-05-18T06:37:12.870Z,100113.06
2023-05-18T06:39:40.404Z,100111.73
2023-05-18T06:42:07.631Z,100111.20
2023-05-18T06:44:35.968Z,100112.16
2023-05-18T06:47:17.419Z,100108.34
2023-05-18T06:49:44.372Z,100112.73
2023-05-18T06:52:11.865Z,100114.61
2023-05-18T06:54:38.774Z,100114.31
2023-05-18T06:57:06.229Z,100110.67
2023-05-18T06:59:34.756Z,100112.63
2023-05-18T07:02:01.775Z,100111.20
2023-05-18T07:04:29.927Z,100114.18
2023-05-18T07:06:56.722Z,100119.02
2023-05-18T07:09:24.012Z,100119.13
2023-05-18T07:11:51.014Z,100119.80
2023-05-18T07:14:17.869Z,100119.38
2023-05-18T07:16:47.125Z,100115.57
2023-05-18T07:19:14.693Z,100114.77
2023-05-18T07:21:41.748Z,100111.96
2023-05-18T07:24:08.589Z,100112.70
2023-05-18T07:26:37.677Z,100121.98
2023-05-18T07:29:04.881Z,100123.02
2023-05-18T07:31:33.544Z,100126.90
2023-05-18T07:34:00.401Z,100131.88
2023-05-18T07:36:28.703Z,100134.62
2023-05-18T07:38:56.963Z,100139.26
2023-05-18T07:41:24.080Z,100136.92
2023-05-18T07:43:51.383Z,100135.52
2023-05-18T07:46:19.126Z,100132.15
2023-05-18T07:48:46.417Z,100138.17
2023-05-18T07:51:13.381Z,100135.65
2023-05-18T07:53:41.667Z,100136.59
2023-05-18T07:56:08.807Z,100138.35
2023-05-18T07:58:36.286Z,100135.85
2023-05-18T08:01:03.325Z,100139.47
2023-05-18T08:03:30.263Z,100137.00
2023-05-18T08:05:57.156Z,100136.29
2023-05-18T08:08:24.637Z,100135.49
2023-05-18T08:10:52.362Z,100133.80
2023-05-18T08:13:20.062Z,100134.50
2023-05-18T08:15:53.289Z,100143.54
2023-05-18T08:19:02.855Z,100143.36
2023-05-18T08:21:29.873Z,100137.72
2023-05-18T08:23:56.731Z,100139.20
2023-05-18T08:26:24.635Z,100136.52
2023-05-18T08:28:51.588Z,100129.96
2023-05-18T08:31:18.604Z,100126.08
2023-05-18T08:33:45.440Z,100129.29
2023-05-18T08:36:12.391Z,100135.19
2023-05-18T08:38:39.287Z,100133.45
2023-05-18T08:41:17.461Z,100127.85
2023-05-18T08:43:47.080Z,100135.12
2023-05-18T08:46:21.424Z,100129.02
2023-05-18T08:48:49.056Z,100123.19
2023-05-18T08:51:19.783Z,100120.19
2023-05-18T08:53:57.607Z,100118.77
2023-05-18T08:56:24.862Z,100110.10
2023-05-18T08:58:54.851Z,100106.30
2023-05-18T09:01:23.698Z,100106.39
2023-05-18T09:03:50.669Z,100117.71
2023-05-18T09:06:18.498Z,100106.16
2023-05-18T09:08:46.202Z,100104.00
2023-05-18T09:11:13.165Z,100107.25
2023-05-18T09:13:39.910Z,100106.92
2023-05-18T09:16:08.182Z,100097.02
2023-05-18T09:18:35.075Z,100105.02
2023-05-18T09:21:01.961Z,100100.84
2023-05-18T09:23:28.763Z,100100.86
2023-05-18T09:25:55.541Z,100106.91
2023-05-18T09:28:33.283Z,100100.20
2023-05-18T09:31:00.146Z,100097.80
2023-05-18T09:33:27.146Z,100090.56
2023-05-18T09:35:54.056Z,100090.85
2023-05-18T09:38:24.601Z,100093.67
2023-05-18T09:40:51.936Z,100094.73
2023-05-18T09:43:21.796Z,100100.63
2023-05-18T09:45:49.252Z,100084.14
2023-05-18T09:48:16.364Z,100084.19
2023-05-18T09:50:44.238Z,100085.32
2023-05-18T09:53:11.251Z,100089.87
2023-05-18T09:55:44.784Z,100090.98
2023-05-18T09:58:11.889Z,100082.85
2023-05-18T10:00:42.822Z,100069.94
2023-05-18T10:03:20.651Z,100073.92
2023-05-18T10:05:48.013Z,100070.23
2023-05-18T10:08:15.414Z,100064.23
2023-05-18T10:10:46.359Z,100064.73
2023-05-18T10:13:19.537Z,100070.64
2023-05-18T10:15:56.681Z,100066.88
2023-05-18T10:18:24.853Z,100067.45
2023-05-18T10:20:53.243Z,100065.66
2023-05-18T10:23:20.961Z,100061.34
2023-05-18T10:25:49.120Z,100056.73
2023-05-18T10:28:38.252Z,100050.86
2023-05-18T10:31:05.212Z,100051.23
2023-05-18T10:33:32.078Z,100055.84
2023-05-18T10:35:58.957Z,100055.26
2023-05-18T10:38:27.605Z,100053.64
2023-05-18T10:41:00.336Z,100048.16
2023-05-18T10:43:28.188Z,100041.26
2023-05-18T10:45:57.218Z,100054.02
2023-05-18T10:48:24.434Z,100048.51
2023-05-18T10:50:53.199Z,100046.28
2023-05-18T10:53:21.197Z,100041.83
2023-05-18T10:55:48.733Z,100041.60
2023-05-18T10:58:17.003Z,100046.09
2023-05-18T11:00:47.386Z,100043.45
2023-05-18T11:03:14.542Z,100040.90
2023-05-18T11:05:41.938Z,100040.11
2023-05-18T11:08:08.954Z,100033.35
2023-05-18T11:10:36.536Z,100036.51
2023-05-18T11:13:03.410Z,100037.70
2023-05-18T11:16:00.078Z,100031.81
2023-05-18T11:18:35.294Z,100034.25
2023-05-18T11:21:02.111Z,100032.66
2023-05-18T11:23:32.728Z,100030.25
2023-05-18T11:26:05.665Z,100024.51
2023-05-18T11:28:33.852Z,100021.96
2023-05-18T11:31:01.022Z,100026.68
2023-05-18T11:33:31.673Z,100021.11
2023-05-18T11:36:12.070Z,100020.56
2023-05-18T11:39:07.050Z,100017.86
2023-05-18T11:41:47.661Z,100015.27
2023-05-18T11:44:15.341Z,100014.45
2023-05-18T11:46:51.298Z,100013.73
2023-05-18T11:49:18.479Z,100013.84
2023-05-18T11:52:15.009Z,100005.91
2023-05-18T11:54:54.196Z,100015.88
2023-05-18T11:57:27.473Z,100022.38
2023-05-18T11:59:55.719Z,100018.92
2023-05-18T12:02:26.956Z,100016.02
2023-05-18T12:04:55.305Z,100015.18
2023-05-18T12:07:22.265Z,100011.27
2023-05-18T12:09:49.212Z,100012.62
2023-05-18T12:12:19.940Z,100011.52
2023-05-18T12:14:55.700Z,100007.88
2023-05-18T12:17:23.744Z,100006.55
2023-05-18T12:19:50.700Z,100008.00
2023-05-18T12:22:17.513Z,100011.69
2023-05-18T12:24:44.445Z,100006.30
2023-05-18T12:27:12.193Z,100006.32
2023-05-18T12:29:42.882Z,100007.06
2023-05-18T12:32:11.047Z,100014.11
2023-05-18T12:34:39.433Z,100013.60
2023-05-18T12:37:08.023Z,100010.14
2023-05-18T12:39:37.843Z,100005.88
2023-05-18T12:42:15.191Z,100005.05
2023-05-18T12:44:45.824Z,100001.95
2023-05-18T12:47:12.852Z,100001.30
2023-05-18T12:49:48.125Z,99996.69
2023-05-18T12:52:16.808Z,99998.76
2023-05-18T12:55:18.274Z,99995.70
2023-05-18T12:57:46.233Z,100000.39
2023-05-18T13:00:13.548Z,100006.09
2023-05-18T13:02:40.565Z,100003.14
2023-05-18T13:05:11.747Z,99993.64
2023-05-18T13:07:40.813Z,99993.08
2023-05-18T13:10:08.553Z,99988.54
2023-05-18T13:12:38.095Z,99991.17
2023-05-18T13:15:13.056Z,99993.60
2023-05-18T13:17:40.172Z,99995.94
2023-05-18T13:20:14.659Z,99991.02
2023-05-18T13:22:41.586Z,99988.81
2023-05-18T13:25:08.490Z,99985.52
2023-05-18T13:27:35.376Z,99985.78
2023-05-18T13:30:02.357Z,99986.87
2023-05-18T13:32:29.142Z,99984.00
2023-05-18T13:34:56.015Z,99988.02
2023-05-18T13:37:23.068Z,99985.84
2023-05-18T13:39:49.886Z,99986.02
2023-05-18T13:42:21.185Z,99983.85
2023-05-18T13:44:48.378Z,99981.17
2023-05-18T13:47:15.169Z,99980.85
2023-05-18T13:49:41.999Z,99983.46
2023-05-18T13:52:08.734Z,99984.93
2023-05-18T13:54:35.525Z,99987.66
2023-05-18T13:57:02.528Z,99988.05
2023-05-18T13:59:29.366Z,99990.09
2023-05-18T14:01:56.196Z,99991.87
2023-05-18T14:04:23.078Z,99988.41
2023-05-18T14:06:49.886Z,99987.07
2023-05-18T14:09:16.680Z,99989.48
2023-05-18T14:11:43.515Z,99986.27
2023-05-18T14:14:10.591Z,99987.89
2023-05-18T14:16:37.467Z,99986.84
2023-05-18T14:19:04.386Z,99989.64
2023-05-18T14:21:31.419Z,99990.77
2023-05-18T14:23:58.257Z,99987.24
2023-05-18T14:26:25.121Z,99989.58
2023-05-18T14:28:51.878Z,99987.85
2023-05-18T14:31:18.791Z,99987.32
2023-05-18T14:33:45.738Z,99987.77
2023-05-18T14:36:12.684Z,99987.96
2023-05-18T14:38:39.480Z,99989.99
2023-05-18T14:41:06.294Z,99986.62
2023-05-18T14:43:33.089Z,99985.67
2023-05-18T14:46:08.028Z,99989.00
2023-05-18T14:48:35.462Z,99989.23
2023-05-18T14:52:23.548Z,99983.08
2023-05-18T14:54:50.477Z,99982.89
2023-05-18T14:57:17.282Z,99981.66
2023-05-18T14:59:44.045Z,99979.88
2023-05-18T15:02:11.105Z,99979.13
2023-05-18T15:04:38.004Z,99975.79
2023-05-18T15:07:05.824Z,99975.10
2023-05-18T15:09:32.641Z,99975.39
2023-05-18T15:11:59.553Z,99974.25
2023-05-18T15:14:26.439Z,99970.55
2023-05-18T15:16:53.344Z,99969.80
2023-05-18T15:19:20.130Z,99965.94
2023-05-18T15:21:47.058Z,99962.63
2023-05-18T15:24:13.961Z,99956.85
2023-05-18T15:26:40.895Z,99961.93
2023-05-18T15:29:07.972Z,99964.17
2023-05-18T15:31:37.134Z,99966.64
2023-05-18T15:34:04.055Z,99967.52
2023-05-18T15:36:32.267Z,99965.11
2023-05-18T15:38:59.161Z,99968.29
2023-05-18T15:41:33.050Z,99967.54
2023-05-18T15:44:01.774Z,99968.91
2023-05-18T15:46:30.094Z,99974.14
2023-05-18T15:48:57.658Z,99970.38
2023-05-18T15:51:25.219Z,99972.45
2023-05-18T15:53:52.001Z,99972.61
2023-05-18T15:56:19.101Z,99970.10
2023-05-18T15:58:46.027Z,99971.36
2023-05-18T16:01:12.793Z,99971.19
2023-05-18T16:03:39.865Z,99970.91
2023-05-18T16:06:07.054Z,99974.14
2023-05-18T16:08:33.833Z,99971.08
2023-05-18T16:11:02.287Z,99974.62
2023-05-18T16:13:29.237Z,99976.20
2023-05-18T16:15:56.039Z,99975.92
2023-05-18T16:18:22.866Z,99979.62
2023-05-18T16:20:49.726Z,99979.02
2023-05-18T16:23:16.554Z,99981.29
2023-05-18T16:25:43.343Z,99985.75
2023-05-18T16:28:10.140Z,99984.50
2023-05-18T16:30:37.106Z,99986.24
2023-05-18T16:33:04.076Z,99988.95
2023-05-18T16:35:31.998Z,99992.73
2023-05-18T16:37:59.123Z,99992.48
2023-05-18T16:40:25.992Z,99992.38
2023-05-18T16:43:11.588Z,99995.73
2023-05-18T16:45:52.679Z,99994.20
2023-05-18T16:48:19.566Z,100001.54
2023-05-18T16:50:46.339Z,100000.34
2023-05-18T16:53:13.261Z,100004.36
2023-05-18T16:55:40.123Z,100004.13
2023-05-18T16:58:06.988Z,100005.04
2023-05-18T17:00:33.932Z,100004.90
2023-05-18T17:03:03.393Z,100006.45
2023-05-18T17:05:30.317Z,100005.77
2023-05-18T17:07:57.105Z,100007.64
2023-05-18T17:10:24.078Z,100010.34
2023-05-18T17:12:51.906Z,100015.70
2023-05-18T17:15:18.846Z,100017.04
2023-05-18T17:17:45.738Z,100016.53
2023-05-18T17:20:12.611Z,100018.25
2023-05-18T17:22:39.526Z,100018.55
2023-05-18T17:25:07.514Z,100019.75
2023-05-18T17:27:34.296Z,100023.54
2023-05-18T17:30:01.103Z,100026.70
2023-05-18T17:32:27.989Z,100027.50
2023-05-18T17:34:54.786Z,100029.67
2023-05-18T17:37:22.050Z,100030.08
2023-05-18T17:39:49.009Z,100031.71
2023-05-18T17:42:16.212Z,100035.16
2023-05-18T17:44:43.800Z,100038.73
2023-05-18T17:47:11.980Z,100040.41
2023-05-18T17:49:38.880Z,100042.46
2023-05-18T17:52:05.909Z,100040.66
2023-05-18T17:54:32.745Z,100046.77
2023-05-18T17:56:59.537Z,100052.70
2023-05-18T17:59:26.655Z,100054.11
2023-05-18T18:01:53.573Z,100054.39
2023-05-18T18:04:20.639Z,100060.44
2023-05-18T18:06:47.579Z,100060.48
2023-05-18T18:09:14.517Z,100060.99
2023-05-18T18:11:41.582Z,100060.98
2023-05-18T18:14:08.422Z,100066.66
2023-05-18T18:16:35.408Z,100073.22
2023-05-18T18:19:02.946Z,100074.60
2023-05-18T18:21:29.839Z,100072.36
2023-05-18T18:23:56.765Z,100073.90
2023-05-18T18:26:23.609Z,100076.85
2023-05-18T18:28:51.226Z,100077.09
2023-05-18T18:31:20.365Z,100079.64
2023-05-18T18:33:50.270Z,100077.16
2023-05-18T18:36:17.183Z,100084.61
2023-05-18T18:38:44.024Z,100086.41
2023-05-18T18:41:11.396Z,100088.55
2023-05-18T18:43:41.228Z,100090.63
2023-05-18T18:46:08.106Z,100088.34
2023-05-18T18:48:34.942Z,100089.92
2023-05-18T18:51:01.758Z,100093.61
2023-05-18T18:53:28.594Z,100087.28
2023-05-18T18:55:57.305Z,100090.50
2023-05-18T18:58:24.399Z,100089.71
2023-05-18T19:00:51.239Z,100089.11
2023-05-18T19:03:18.101Z,100090.09
2023-05-18T19:05:45.012Z,100092.32
2023-05-18T19:08:11.948Z,100093.56
2023-05-18T19:10:38.796Z,100095.52
2023-05-18T19:13:06.089Z,100098.66
2023-05-18T19:15:34.189Z,100099.05
2023-05-18T19:18:01.459Z,100099.44
2023-05-18T19:20:28.483Z,100100.94
2023-05-18T19:22:55.435Z,100101.91
2023-05-18T19:25:24.698Z,100106.38
2023-05-18T19:27:54.753Z,100108.22
2023-05-18T19:30:22.202Z,100108.64
2023-05-18T19:32:49.795Z,100105.20
2023-05-18T19:35:19.516Z,100106.45
2023-05-18T19:37:47.286Z,100107.30
2023-05-18T19:40:14.089Z,100106.81
2023-05-18T19:42:40.908Z,100106.90
2023-05-18T19:45:07.979Z,100103.34
2023-05-18T19:47:34.949Z,100105.55
2023-05-18T19:50:01.977Z,100105.02
2023-05-18T19:52:28.803Z,100104.16
2023-05-18T19:54:56.316Z,100107.02
2023-05-18T19:57:23.190Z,100108.15
2023-05-18T19:59:50.088Z,100108.02
2023-05-18T20:02:16.945Z,100110.34
2023-05-18T20:04:43.702Z,100111.42
2023-05-18T20:07:12.905Z,100114.48
2023-05-18T20:09:39.920Z,100114.20
2023-05-18T20:12:07.092Z,100117.31
2023-05-18T20:14:34.627Z,100120.14
2023-05-18T20:17:01.856Z,100121.55
2023-05-18T20:19:28.995Z,100123.20
2023-05-18T20:21:56.237Z,100124.84
2023-05-18T20:24:24.463Z,100119.71
2023-05-18T20:26:51.275Z,100122.85
2023-05-18T20:29:18.037Z,100124.76
2023-05-18T20:31:45.057Z,100123.80
2023-05-18T20:34:11.966Z,100123.20
2023-05-18T20:36:39.361Z,100122.95
2023-05-18T20:39:07.388Z,100125.02
2023-05-18T20:41:34.343Z,100129.29
2023-05-18T20:44:02.258Z,100127.30
2023-05-18T20:46:31.194Z,100133.86
2023-05-18T20:48:58.274Z,100132.77
2023-05-18T20:51:25.220Z,100130.20
2023-05-18T20:53:52.162Z,100132.88
2023-05-18T20:56:18.994Z,100131.86
2023-05-18T20:58:50.046Z,100133.10
2023-05-18T21:01:18.851Z,100132.49
2023-05-18T21:03:46.072Z,100128.58
2023-05-18T21:06:14.543Z,100129.94
2023-05-18T21:08:41.480Z,100129.34
2023-05-18T21:11:08.290Z,100130.95
2023-05-18T21:13:36.946Z,100129.77
2023-05-18T21:16:06.886Z,100129.80
2023-05-18T21:18:34.792Z,100130.52
2023-05-18T21:23:29.463Z,100133.98
2023-05-18T21:25:56.929Z,100132.98
2023-05-18T21:28:26.592Z,100131.53
2023-05-18T21:30:54.303Z,100131.26
2023-05-18T21:33:21.551Z,100135.07
2023-05-18T21:35:48.505Z,100135.85
2023-05-18T21:38:16.798Z,100139.06
2023-05-18T21:40:44.065Z,100141.15
2023-05-18T21:43:11.211Z,100150.14
2023-05-18T21:45:38.821Z,100155.05
2023-05-18T21:48:06.161Z,100146.34
2023-05-18T21:50:35.163Z,100150.03
2023-05-18T21:53:03.468Z,100152.31
2023-05-18T21:55:31.452Z,100149.85
2023-05-18T21:57:58.316Z,100149.63
2023-05-18T22:00:25.174Z,100152.65
2023-05-18T22:02:52.421Z,100154.88
2023-05-18T22:05:19.529Z,100155.98
2023-05-18T22:07:47.020Z,100153.23
2023-05-18T22:10:14.041Z,100151.02
2023-05-18T22:12:43.528Z,100152.24
2023-05-18T22:15:11.506Z,100147.20
2023-05-18T22:17:39.255Z,100142.35
2023-05-18T22:20:09.790Z,100141.43
2023-05-18T22:22:36.832Z,100144.26
2023-05-18T22:25:03.747Z,100144.11
2023-05-18T22:27:30.597Z,100144.95
2023-05-18T22:29:57.724Z,100145.48
2023-05-18T22:32:24.785Z,100146.27
2023-05-18T22:34:52.093Z,100144.23
2023-05-18T22:37:18.948Z,100149.23
2023-05-18T22:39:45.900Z,100151.73
2023-05-18T22:42:12.718Z,100151.59
2023-05-18T22:44:39.481Z,100151.19
2023-05-18T22:47:06.444Z,100156.41
2023-05-18T22:49:36.086Z,100161.14
2023-05-18T22:52:04.461Z,100159.63
2023-05-18T22:54:31.273Z,100161.31
2023-05-18T22:56:59.679Z,100164.13
2023-05-18T22:59:29.429Z,100161.10
2023-05-18T23:01:56.276Z,100164.29
2023-05-18T23:04:23.091Z,100160.52
2023-05-18T23:06:50.924Z,100160.42
2023-05-18T23:09:18.519Z,100159.42
2023-05-18T23:11:46.131Z,100165.28
2023-05-18T23:14:13.122Z,100173.06
2023-05-18T23:16:42.929Z,100171.05
2023-05-18T23:19:12.329Z,100165.41
2023-05-18T23:21:40.405Z,100165.30
2023-05-18T23:24:08.099Z,100163.91
2023-05-18T23:26:34.916Z,100164.13
2023-05-18T23:29:01.760Z,100161.38
2023-05-18T23:31:28.840Z,100157.77
2023-05-18T23:33:56.117Z,100160.77
2023-05-18T23:36:22.971Z,100157.94
2023-05-18T23:38:49.748Z,100160.05
2023-05-18T23:41:16.603Z,100160.34
2023-05-18T23:43:43.687Z,100160.55
2023-05-18T23:46:10.983Z,100163.91
2023-05-18T23:48:38.421Z,100159.88
2023-05-18T23:51:05.844Z,100160.09
2023-05-18T23:53:32.764Z,100159.77
2023-05-18T23:55:59.879Z,100160.02
2023-05-18T23:58:31.511Z,100161.06
